Impacts METAR Board
IDs:

KDFW - Dallas-Ft Worth Intl, TX, US

Updated at: 1500 UTC 26 Apr 2018
Potential Impact None Slight Moderate High
Time 26/03Z 26/04Z 26/05Z 26/06Z 26/07Z 26/08Z 26/09Z 26/10Z 26/11Z 26/12Z 26/13Z 26/14Z 26/15Z
Temp53 52 51 50 50 48 49 48 47 48 50 54 56
Dewpt49 49 48 47 46 45 44 43 44 44 44 47 45
Altim30.10 30.10 30.08 30.07 30.05 30.02 30.02 30.01 30.01 30.02 30.05 30.06 30.04
VIS10 10 10 10 10 10 10 10 10 10 10 10 10
CIG-- -- -- -- -- -- -- -- -- -- -- -- --
CoverFEWCLRCLRCLRCLRCLRCLRCLRCLRCLRCLRFEWFEW
FltCatVFRVFRVFRVFRVFRVFRVFRVFRVFRVFRVFRVFRVFR
WX--------------------------
WDir290280280280300310300290290290310360360
WSpd9 8 8 6 8 7 7 8 7 8 8 8 7
WGst-- -- -- -- -- -- -- -- -- -- -- -- --
Raw hourly METARs
KDFW 260253Z 29009KT 10SM FEW031 12/09 A3010 RMK AO2 SLP189 T01170094 58000
KDFW 260353Z 28008KT 10SM CLR 11/09 A3010 RMK AO2 SLP189 T01110094
KDFW 260453Z 28008KT 10SM CLR 11/09 A3008 RMK AO2 SLP183 T01060089
KDFW 260553Z 28006KT 10SM CLR 10/08 A3007 RMK AO2 SLP180 T01000083 10122 20100 402170100 58010
KDFW 260653Z 30008KT 10SM CLR 10/08 A3005 RMK AO2 SLP175 T01000078
KDFW 260753Z 31007KT 10SM CLR 09/07 A3002 RMK AO2 SLP163 T00890072
KDFW 260853Z 30007KT 10SM CLR 09/07 A3002 RMK AO2 SLP163 T00940067 56017
KDFW 260953Z 29008KT 10SM CLR 09/06 A3001 RMK AO2 SLP161 T00890061
KDFW 261053Z 29007KT 10SM CLR 08/07 A3001 RMK AO2 SLP160 T00830067
KDFW 261153Z 29008KT 10SM CLR 09/07 A3002 RMK AO2 SLP164 70009 T00890067 10100 20083 53001
KDFW 261253Z 31008KT 10SM CLR 10/07 A3005 RMK AO2 SLP172 T01000067
KDFW 261353Z 36008KT 10SM FEW001 12/08 A3006 RMK AO2 SLP176 FU FEW001 SW T01220083
KDFW 261453Z 36007KT 10SM FEW004 FEW250 13/07 A3004 RMK AO2 SLP171 FU FEW004 S-SW T01330072 50008



Page loaded:  15:21 UTC  |   08:21 AM Pacific  |   09:21 AM Mountain  |   10:21 AM Central  |   11:21 AM Eastern

 

ADVISORIES

FORECASTS

FORECASTS

OBSERVATIONS

USER TOOLS

ABOUT US